Time;durP1;ratioP1;P1;durP2;ratioP2;P2;SDS_P1;SDS_P2;PMS_P1;PMS_P2;Temp;Humidity;BMP_temperature;BMP_pressure;BME280_temperature;BME280_humidity;BME280_pressure;Samples;Min_cycle;Max_cycle;Signal;HPM_P1;HPM_P2
2023/06/16 00:00:19;;;;;;;7.00;4.43;;;;;;;19.05;40.53;101198.94;839381;23;1490;-78
2023/06/16 00:00:43;;;;;;;7.63;4.60;;;;;;;19.08;40.52;101203.38;835328;23;1236;-79
2023/06/16 00:01:09;;;;;;;8.60;4.53;;;;;;;19.09;40.51;101203.38;835683;23;1123;-78
2023/06/16 00:01:31;;;;;;;7.18;4.28;;;;;;;19.00;40.59;101193.63;839545;23;1316;-78
2023/06/16 00:01:53;;;;;;;7.43;4.40;;;;;;;19.02;40.64;101206.88;839874;23;819;-78
2023/06/16 00:02:17;;;;;;;6.65;4.55;;;;;;;18.96;40.66;101191.88;836297;23;1412;-78
2023/06/16 00:02:41;;;;;;;6.88;4.60;;;;;;;19.00;40.56;101200.72;835607;23;1417;-78
2023/06/16 00:03:02;;;;;;;6.55;4.60;;;;;;;18.97;40.54;101200.69;835715;23;1300;-78
2023/06/16 00:03:23;;;;;;;6.55;4.40;;;;;;;18.98;40.65;101198.06;839330;23;1319;-79
2023/06/16 00:03:49;;;;;;;7.18;4.45;;;;;;;19.02;40.62;101198.94;842952;23;1209;-78
2023/06/16 00:04:10;;;;;;;7.68;4.60;;;;;;;19.06;40.59;101197.19;838675;23;1329;-78
2023/06/16 00:04:31;;;;;;;7.22;4.60;;;;;;;19.04;40.55;101200.72;847495;23;1045;-78
2023/06/16 00:04:53;;;;;;;6.50;4.68;;;;;;;19.01;40.69;101192.75;847924;23;1383;-78
2023/06/16 00:05:14;;;;;;;7.40;4.78;;;;;;;19.07;40.51;101206.91;838993;23;1437;-78
2023/06/16 00:05:35;;;;;;;7.22;4.63;;;;;;;19.01;40.62;101199.81;835218;23;1229;-78
2023/06/16 00:05:56;;;;;;;8.20;4.82;;;;;;;18.99;40.42;101188.38;839650;23;1284;-78
2023/06/16 00:06:19;;;;;;;8.02;4.80;;;;;;;19.04;40.43;101207.78;835398;23;1202;-78
2023/06/16 00:06:42;;;;;;;8.10;4.85;;;;;;;18.95;40.49;101198.06;834661;23;1062;-78
2023/06/16 00:07:03;;;;;;;7.88;4.85;;;;;;;19.02;40.60;101197.19;839088;23;1401;-78
2023/06/16 00:07:24;;;;;;;7.25;4.82;;;;;;;18.98;40.59;101198.06;836937;23;997;-77
2023/06/16 00:07:45;;;;;;;6.95;4.80;;;;;;;18.96;40.64;101196.28;839691;23;1348;-78
2023/06/16 00:08:09;;;;;;;8.30;4.78;;;;;;;19.00;40.54;101191.00;835814;23;1313;-78
2023/06/16 00:08:31;;;;;;;8.68;5.00;;;;;;;19.07;40.30;101206.91;842528;23;1181;-78
2023/06/16 00:08:54;;;;;;;9.50;5.25;;;;;;;19.04;40.43;101202.47;845219;23;1960;-77
2023/06/16 00:09:14;;;;;;;9.88;5.22;;;;;;;19.00;40.56;101192.78;839370;23;1240;-78
2023/06/16 00:09:36;;;;;;;9.33;4.87;;;;;;;18.97;40.40;101188.34;841174;23;1080;-78
2023/06/16 00:09:56;;;;;;;7.25;4.47;;;;;;;19.00;40.50;101198.91;837221;23;815;-78
2023/06/16 00:10:17;;;;;;;5.90;4.40;;;;;;;18.98;40.35;101189.22;835611;23;1258;-79
2023/06/16 00:10:38;;;;;;;6.40;4.60;;;;;;;18.98;40.55;101191.88;841085;23;1048;-79
2023/06/16 00:10:59;;;;;;;6.88;4.80;;;;;;;18.97;40.52;101190.09;841271;23;771;-78
2023/06/16 00:11:21;;;;;;;7.20;5.00;;;;;;;18.89;40.45;101188.34;840869;23;1189;-77
2023/06/16 00:11:41;;;;;;;7.40;5.10;;;;;;;18.96;40.74;101191.00;835618;23;1222;-78
2023/06/16 00:12:03;;;;;;;8.33;5.13;;;;;;;19.02;40.40;101198.94;837060;23;1057;-78
2023/06/16 00:12:23;;;;;;;8.85;5.10;;;;;;;19.01;40.54;101199.81;838087;23;1329;-79
2023/06/16 00:12:44;;;;;;;9.20;5.10;;;;;;;18.97;40.50;101187.47;841006;23;800;-78
2023/06/16 00:13:05;;;;;;;6.93;4.60;;;;;;;18.87;40.66;101181.31;841087;23;1030;-78
2023/06/16 00:13:26;;;;;;;7.00;4.70;;;;;;;18.97;40.69;101190.09;837778;23;1276;-77
2023/06/16 00:13:48;;;;;;;7.80;4.80;;;;;;;19.03;40.67;101200.72;841083;23;928;-78
2023/06/16 00:14:09;;;;;;;9.65;4.80;;;;;;;19.01;40.58;101199.81;834869;23;1575;-79
2023/06/16 00:14:30;;;;;;;9.95;4.78;;;;;;;18.95;40.66;101186.59;835485;23;1150;-78
2023/06/16 00:14:51;;;;;;;9.10;4.90;;;;;;;19.00;40.57;101196.28;837442;23;748;-79
2023/06/16 00:15:11;;;;;;;7.00;4.90;;;;;;;19.00;40.57;101193.63;837868;23;1057;-78
2023/06/16 00:15:32;;;;;;;7.03;4.90;;;;;;;18.99;40.62;101196.31;841967;23;914;-79
2023/06/16 00:15:53;;;;;;;7.70;5.10;;;;;;;18.92;40.73;101187.47;844288;23;1167;-78
2023/06/16 00:16:19;;;;;;;8.15;5.32;;;;;;;19.01;40.62;101202.47;845608;23;1079;-79
2023/06/16 00:16:40;;;;;;;7.43;5.30;;;;;;;18.95;40.58;101191.88;845057;23;1025;-78
2023/06/16 00:17:03;;;;;;;9.55;5.60;;;;;;;18.98;40.66;101198.06;846279;23;865;-78
2023/06/16 00:17:26;;;;;;;9.90;5.50;;;;;;;18.86;40.56;101193.66;839506;23;1211;-78
2023/06/16 00:17:49;;;;;;;9.80;5.05;;;;;;;18.94;40.77;101200.69;839803;23;1424;-78
2023/06/16 00:18:11;;;;;;;7.80;4.78;;;;;;;18.82;40.73;101189.25;839627;23;1241;-78
2023/06/16 00:18:32;;;;;;;7.70;4.80;;;;;;;18.87;40.73;101195.41;835667;23;1242;-78
2023/06/16 00:18:57;;;;;;;6.30;4.82;;;;;;;18.89;40.99;101206.84;841264;23;787;-78
2023/06/16 00:19:18;;;;;;;5.80;4.72;;;;;;;18.88;40.91;101199.81;840919;23;1061;-78
2023/06/16 00:19:39;;;;;;;6.50;4.50;;;;;;;18.88;40.86;101197.16;839743;23;1296;-78
2023/06/16 00:20:00;;;;;;;7.30;4.40;;;;;;;18.88;40.78;101206.88;839079;23;1328;-78
2023/06/16 00:20:22;;;;;;;7.22;4.50;;;;;;;18.82;40.77;101197.19;851559;23;1192;-78
2023/06/16 00:20:42;;;;;;;7.50;4.80;;;;;;;18.79;40.90;101193.66;853232;23;1141;-78
2023/06/16 00:21:03;;;;;;;7.23;5.00;;;;;;;18.77;40.94;101194.50;849157;23;984;-78
2023/06/16 00:21:35;;;;;;;7.80;4.80;;;;;;;18.74;40.88;101189.22;843079;23;1280;-78
2023/06/16 00:21:59;;;;;;;6.28;4.53;;;;;;;18.74;40.89;101193.63;841201;23;799;-78
2023/06/16 00:22:22;;;;;;;6.90;4.70;;;;;;;18.76;40.77;101195.41;835540;23;1199;-78
2023/06/16 00:22:47;;;;;;;7.50;5.00;;;;;;;18.79;40.88;101207.75;836956;23;975;-78
2023/06/16 00:23:11;;;;;;;9.07;5.30;;;;;;;18.79;40.82;101204.22;839097;23;1518;-77
2023/06/16 00:23:31;;;;;;;8.07;5.03;;;;;;;18.73;41.03;101186.59;840862;23;1009;-78
2023/06/16 00:23:53;;;;;;;7.90;4.90;;;;;;;18.71;41.12;101194.53;845212;23;900;-77
2023/06/16 00:24:14;;;;;;;7.10;4.70;;;;;;;18.68;41.04;101193.66;843300;23;1313;-78
2023/06/16 00:24:35;;;;;;;6.93;4.70;;;;;;;18.77;40.71;101198.94;845143;23;1000;-78
2023/06/16 00:24:55;;;;;;;6.63;4.60;;;;;;;18.75;41.10;101203.34;851193;23;1251;-79
2023/06/16 00:25:19;;;;;;;6.28;4.90;;;;;;;18.72;41.06;101200.69;848188;23;1156;-78
2023/06/16 00:25:40;;;;;;;6.57;4.82;;;;;;;18.70;40.97;101202.44;845311;23;1107;-78
2023/06/16 00:26:00;;;;;;;7.10;5.13;;;;;;;18.68;41.12;101201.56;839981;23;1032;-78
2023/06/16 00:26:22;;;;;;;6.40;4.60;;;;;;;18.70;41.18;101197.16;841265;23;1021;-78
2023/06/16 00:26:44;;;;;;;6.07;4.57;;;;;;;18.61;41.14;101188.34;839733;23;1215;-78
2023/06/16 00:27:04;;;;;;;5.78;4.32;;;;;;;18.66;41.16;101200.66;842732;23;1227;-78
2023/06/16 00:27:25;;;;;;;5.82;4.30;;;;;;;18.71;41.17;101206.84;841133;23;1120;-78
2023/06/16 00:27:46;;;;;;;6.03;4.70;;;;;;;18.73;41.11;101207.72;841503;23;776;-78
2023/06/16 00:28:07;;;;;;;7.90;5.20;;;;;;;18.63;41.26;101188.34;841462;23;949;-78
2023/06/16 00:28:28;;;;;;;8.97;5.50;;;;;;;18.70;41.42;101202.44;837176;23;1108;-79
2023/06/16 00:28:48;;;;;;;8.77;5.40;;;;;;;18.65;41.29;101194.53;835917;23;1894;-77
2023/06/16 00:29:09;;;;;;;7.45;4.80;;;;;;;18.61;41.05;101196.28;839825;23;1196;-78
2023/06/16 00:29:30;;;;;;;8.32;4.70;;;;;;;18.67;41.13;101208.59;837163;23;1040;-78
2023/06/16 00:29:51;;;;;;;8.77;4.60;;;;;;;18.67;41.42;101202.47;838735;23;1242;-78
2023/06/16 00:30:13;;;;;;;8.18;4.80;;;;;;;18.62;41.43;101199.78;841109;23;1194;-78
2023/06/16 00:30:33;;;;;;;6.88;4.97;;;;;;;18.61;41.33;101200.66;841209;23;1075;-78
2023/06/16 00:30:55;;;;;;;6.60;5.10;;;;;;;18.62;41.36;101195.38;841596;23;1303;-78
2023/06/16 00:31:15;;;;;;;6.20;5.00;;;;;;;18.64;41.55;101209.47;838780;23;1244;-78
2023/06/16 00:31:36;;;;;;;6.68;4.88;;;;;;;18.63;41.46;101206.84;839802;23;1265;-78
2023/06/16 00:31:57;;;;;;;7.82;4.88;;;;;;;18.59;41.46;101190.13;839474;23;1289;-78
2023/06/16 00:32:17;;;;;;;10.00;5.50;;;;;;;18.58;41.55;101198.03;841127;23;1210;-78
2023/06/16 00:32:38;;;;;;;9.35;5.20;;;;;;;18.59;41.56;101205.97;838978;23;1192;-78
2023/06/16 00:32:59;;;;;;;8.82;5.03;;;;;;;18.59;41.61;101203.34;849471;23;822;-78
2023/06/16 00:33:20;;;;;;;7.57;4.70;;;;;;;18.55;41.74;101196.25;849318;23;1218;-78
2023/06/16 00:33:42;;;;;;;8.30;5.22;;;;;;;18.56;41.80;101205.94;839492;23;1372;-78
2023/06/16 00:34:03;;;;;;;9.82;5.50;;;;;;;18.51;41.72;101191.88;840059;23;1328;-78
2023/06/16 00:34:24;;;;;;;9.40;5.60;;;;;;;18.47;41.67;101190.06;841187;23;1020;-78
2023/06/16 00:34:45;;;;;;;8.52;5.43;;;;;;;18.48;41.70;101191.84;839995;23;1378;-77
2023/06/16 00:35:07;;;;;;;7.95;5.38;;;;;;;18.56;41.63;101205.09;845295;23;1162;-78
2023/06/16 00:35:30;;;;;;;8.88;5.38;;;;;;;18.48;41.88;101194.47;839715;23;1330;-78
2023/06/16 00:35:50;;;;;;;8.10;5.20;;;;;;;18.52;41.85;101198.91;844070;23;1267;-78
2023/06/16 00:36:11;;;;;;;8.13;5.25;;;;;;;18.49;41.79;101198.88;845323;23;981;-78
2023/06/16 00:36:32;;;;;;;8.93;5.00;;;;;;;18.46;41.85;101190.97;842841;23;1241;-78
2023/06/16 00:36:52;;;;;;;8.50;5.00;;;;;;;18.47;41.91;101201.56;839530;23;807;-78
2023/06/16 00:37:13;;;;;;;8.27;5.00;;;;;;;18.45;42.03;101191.84;843410;23;1298;-78
2023/06/16 00:37:33;;;;;;;7.10;5.30;;;;;;;18.44;41.72;101200.66;845325;23;1095;-78
2023/06/16 00:37:54;;;;;;;8.43;5.30;;;;;;;18.41;41.96;101190.97;841418;23;868;-78
2023/06/16 00:38:16;;;;;;;8.45;5.30;;;;;;;18.40;42.05;101191.84;839822;23;1338;-78
2023/06/16 00:38:37;;;;;;;8.40;5.35;;;;;;;18.42;41.98;101194.47;845236;23;874;-78
2023/06/16 00:38:58;;;;;;;7.30;5.45;;;;;;;18.39;42.14;101191.81;838719;23;1053;-79
2023/06/16 00:39:18;;;;;;;8.87;5.50;;;;;;;18.38;42.11;101196.22;843623;23;1256;-78
2023/06/16 00:39:39;;;;;;;9.82;5.50;;;;;;;18.41;42.16;101200.63;835828;23;1179;-77
2023/06/16 00:40:00;;;;;;;9.70;5.55;;;;;;;18.42;42.09;101205.94;839898;23;1221;-78
2023/06/16 00:40:21;;;;;;;8.75;5.53;;;;;;;18.40;42.14;101206.78;837212;23;1258;-78
2023/06/16 00:40:41;;;;;;;7.85;5.38;;;;;;;18.31;42.21;101191.81;839372;23;1172;-78
2023/06/16 00:41:02;;;;;;;7.40;5.00;;;;;;;18.36;42.25;101198.88;841286;23;989;-77
2023/06/16 00:41:24;;;;;;;6.97;5.00;;;;;;;18.33;42.30;101193.56;845165;23;932;-78
2023/06/16 00:41:45;;;;;;;7.95;4.80;;;;;;;18.37;42.25;101202.38;840729;23;1316;-78
2023/06/16 00:42:06;;;;;;;8.30;4.95;;;;;;;18.31;42.25;101195.34;839993;23;1067;-78
2023/06/16 00:42:27;;;;;;;8.48;4.90;;;;;;;18.26;42.33;101185.63;835679;23;1189;-77
2023/06/16 00:42:47;;;;;;;7.07;5.20;;;;;;;18.30;42.23;101198.84;840036;23;1132;-78
2023/06/16 00:43:08;;;;;;;6.85;4.95;;;;;;;18.27;42.38;101192.69;843997;23;1188;-78
2023/06/16 00:43:29;;;;;;;6.88;5.00;;;;;;;18.30;42.37;101193.56;845070;23;1115;-78
2023/06/16 00:43:51;;;;;;;6.40;4.80;;;;;;;18.34;42.17;101213.81;845589;23;732;-78
2023/06/16 00:44:11;;;;;;;6.75;5.07;;;;;;;18.27;42.31;101201.50;841261;23;1037;-77
2023/06/16 00:44:32;;;;;;;6.70;4.80;;;;;;;18.23;42.67;101186.50;839795;23;1269;-78
2023/06/16 00:44:53;;;;;;;7.35;5.15;;;;;;;18.27;42.61;101204.16;843963;23;1402;-78
2023/06/16 00:45:14;;;;;;;7.07;5.07;;;;;;;18.28;42.98;101205.00;843342;23;1247;-78
2023/06/16 00:45:35;;;;;;;9.30;5.40;;;;;;;18.21;42.71;101199.69;839775;23;1433;-78
2023/06/16 00:45:56;;;;;;;10.25;5.20;;;;;;;18.21;42.68;101198.84;841489;23;830;-78
2023/06/16 00:46:26;;;;;;;10.18;5.30;;;;;;;18.21;42.64;101201.47;839695;23;1239;-77
2023/06/16 00:46:47;;;;;;;8.15;5.30;;;;;;;18.17;42.67;101195.31;847334;23;2107;-78
2023/06/16 00:47:07;;;;;;;8.18;5.25;;;;;;;18.20;42.78;101197.06;849347;23;969;-77
2023/06/16 00:47:29;;;;;;;8.77;5.40;;;;;;;18.23;42.94;101205.00;845064;23;1090;-78
2023/06/16 00:47:51;;;;;;;8.23;5.53;;;;;;;18.17;42.71;101197.03;839972;23;1169;-78
2023/06/16 00:48:12;;;;;;;7.15;5.30;;;;;;;18.14;42.81;101197.03;843753;23;1275;-78
2023/06/16 00:48:33;;;;;;;6.72;5.13;;;;;;;18.10;42.89;101190.84;845232;23;901;-78
2023/06/16 00:48:56;;;;;;;6.80;5.10;;;;;;;18.16;42.99;101205.84;847902;23;1950;-79
2023/06/16 00:49:17;;;;;;;7.10;5.20;;;;;;;18.08;43.01;101196.09;851539;23;1150;-78
2023/06/16 00:49:38;;;;;;;6.95;5.10;;;;;;;18.14;42.73;101204.94;845225;23;931;-78
2023/06/16 00:49:59;;;;;;;6.38;4.93;;;;;;;18.07;42.68;101197.00;852103;23;1429;-78
2023/06/16 00:50:20;;;;;;;6.40;5.00;;;;;;;18.04;42.67;101191.72;847557;23;1339;-77
2023/06/16 00:50:41;;;;;;;7.60;5.00;;;;;;;18.10;42.70;101206.69;839700;23;1164;-78
2023/06/16 00:51:03;;;;;;;7.53;4.82;;;;;;;18.07;42.90;101207.56;839526;23;1264;-78
2023/06/16 00:51:26;;;;;;;7.85;4.78;;;;;;;18.01;42.99;101196.97;835770;23;1290;-78
2023/06/16 00:51:48;;;;;;;7.35;4.72;;;;;;;17.99;42.79;101201.34;836064;23;1091;-77
2023/06/16 00:52:12;;;;;;;7.88;4.90;;;;;;;17.95;43.22;101194.31;839966;23;1187;-78
2023/06/16 00:52:37;;;;;;;7.43;4.95;;;;;;;17.90;43.15;101196.06;839960;23;927;-78
2023/06/16 00:52:58;;;;;;;6.50;4.70;;;;;;;17.97;43.35;101200.47;841417;23;877;-78
2023/06/16 00:53:18;;;;;;;7.45;5.00;;;;;;;17.93;43.28;101203.97;841312;23;1206;-78
2023/06/16 00:53:40;;;;;;;9.02;5.30;;;;;;;17.97;43.29;101210.16;835949;23;1137;-78
2023/06/16 00:54:02;;;;;;;8.73;5.35;;;;;;;17.87;43.41;101201.28;837538;23;768;-77
2023/06/16 00:54:23;;;;;;;7.05;5.28;;;;;;;17.94;43.19;101209.25;841151;23;973;-78
2023/06/16 00:54:43;;;;;;;7.88;5.18;;;;;;;17.87;42.90;101190.75;835523;23;1083;-78
2023/06/16 00:55:08;;;;;;;7.68;4.82;;;;;;;17.91;43.25;101197.81;839641;23;1296;-78
2023/06/16 00:55:29;;;;;;;7.97;4.70;;;;;;;17.89;43.02;101202.22;843576;23;1184;-78
2023/06/16 00:55:50;;;;;;;7.05;4.90;;;;;;;17.87;42.94;101196.91;845478;23;879;-78
2023/06/16 00:56:11;;;;;;;6.95;5.07;;;;;;;17.81;43.23;101194.25;842789;23;1423;-78
2023/06/16 00:56:33;;;;;;;7.30;5.28;;;;;;;17.84;43.32;101203.94;839685;23;1162;-78
2023/06/16 00:56:55;;;;;;;8.35;5.10;;;;;;;17.77;43.36;101203.91;843278;23;809;-78
2023/06/16 00:57:15;;;;;;;8.38;4.97;;;;;;;17.73;43.27;101196.84;839653;23;1161;-78
2023/06/16 00:57:37;;;;;;;6.25;4.88;;;;;;;17.69;43.37;101205.63;839871;23;1148;-78
2023/06/16 00:57:58;;;;;;;6.07;4.75;;;;;;;17.63;43.33;101195.91;837480;23;911;-78
2023/06/16 00:58:21;;;;;;;6.03;4.95;;;;;;;17.69;43.42;101205.63;841104;23;1025;-78
2023/06/16 00:58:42;;;;;;;7.28;5.13;;;;;;;17.62;43.49;101194.16;837326;23;1203;-78
2023/06/16 00:59:03;;;;;;;8.45;5.30;;;;;;;17.61;43.68;101202.06;835692;23;1370;-78
2023/06/16 00:59:26;;;;;;;7.97;5.20;;;;;;;17.61;43.62;101202.06;840727;23;1035;-78
2023/06/16 00:59:47;;;;;;;8.23;5.00;;;;;;;17.56;43.88;101198.53;840057;23;1110;-78
2023/06/16 01:00:11;;;;;;;7.30;5.10;;;;;;;17.51;43.83;101196.72;843745;23;1248;-78
2023/06/16 01:00:35;;;;;;;7.15;4.85;;;;;;;17.44;44.02;101189.66;845171;23;1011;-78
2023/06/16 01:00:57;;;;;;;5.95;4.60;;;;;;;17.42;44.05;101191.41;842909;23;1417;-78
2023/06/16 01:01:18;;;;;;;6.80;5.00;;;;;;;17.43;43.75;101187.88;843723;23;1196;-78
2023/06/16 01:01:39;;;;;;;7.07;5.18;;;;;;;17.46;44.01;101202.84;843532;23;1095;-78
2023/06/16 01:02:00;;;;;;;7.13;5.30;;;;;;;17.39;44.05;101183.44;840022;23;1312;-78
2023/06/16 01:02:22;;;;;;;7.40;4.88;;;;;;;17.36;44.08;101191.34;841257;23;1081;-78
2023/06/16 01:02:46;;;;;;;7.38;4.65;;;;;;;17.35;44.08;101192.25;841344;23;784;-78
2023/06/16 01:03:08;;;;;;;8.35;4.82;;;;;;;17.40;44.36;101201.94;836039;23;1314;-77
2023/06/16 01:03:29;;;;;;;7.80;5.38;;;;;;;17.35;44.53;101193.13;840921;23;1158;-78
2023/06/16 01:03:51;;;;;;;7.13;5.25;;;;;;;17.29;44.47;101189.56;841328;23;772;-78
2023/06/16 01:04:12;;;;;;;6.88;4.95;;;;;;;17.23;44.41;101186.00;845157;23;1109;-77
2023/06/16 01:04:33;;;;;;;7.80;4.80;;;;;;;17.30;44.46;101196.59;845304;23;1019;-77
2023/06/16 01:04:54;;;;;;;7.85;5.00;;;;;;;17.19;44.52;101185.91;841081;23;1019;-78
2023/06/16 01:05:19;;;;;;;8.15;5.32;;;;;;;17.29;44.64;101197.47;847786;23;1317;-78
2023/06/16 01:05:43;;;;;;;9.50;5.50;;;;;;;17.24;44.70;101198.34;841110;23;926;-78
2023/06/16 01:06:25;;;;;;;9.05;5.30;;;;;;;17.24;44.65;101202.72;843897;23;1200;-78
2023/06/16 01:07:09;;;;;;;8.30;5.40;;;;;;;17.24;44.72;101198.34;843229;23;1341;-77
2023/06/16 01:07:36;;;;;;;7.10;5.10;;;;;;;17.22;44.85;101207.97;839059;23;981;-77
2023/06/16 01:08:20;;;;;;;7.13;5.30;;;;;;;17.20;44.86;101207.03;841246;23;758;-78
2023/06/16 01:08:54;;;;;;;8.15;5.28;;;;;;;17.09;45.02;101187.63;839747;23;1357;-78
2023/06/16 01:09:15;;;;;;;8.40;5.00;;;;;;;17.15;44.93;101203.47;837082;23;1075;-78
2023/06/16 01:09:42;;;;;;;7.63;4.70;;;;;;;17.16;44.96;101200.00;843838;23;1184;-78
2023/06/16 01:10:24;;;;;;;6.32;4.70;;;;;;;17.17;44.79;101207.03;839899;23;1240;-78
2023/06/16 01:11:00;;;;;;;7.55;5.13;;;;;;;17.16;44.94;101202.63;837276;23;788;-78
2023/06/16 01:11:43;;;;;;;10.15;5.57;;;;;;;17.07;44.95;101198.16;840319;23;1029;-77
2023/06/16 01:12:35;;;;;;;7.60;4.93;;;;;;;17.09;45.06;101206.09;843843;23;1823;-78
2023/06/16 01:13:07;;;;;;;7.07;5.05;;;;;;;17.05;45.12;101201.66;839779;23;1149;-78
2023/06/16 01:13:39;;;;;;;7.00;5.43;;;;;;;17.01;45.12;101202.50;835518;23;1977;-77
2023/06/16 01:14:27;;;;;;;7.35;5.47;;;;;;;17.02;44.97;101206.91;837269;23;851;-78
2023/06/16 01:15:17;;;;;;;7.82;5.30;;;;;;;16.98;45.14;101198.09;835889;23;1347;-77
2023/06/16 01:15:42;;;;;;;6.75;5.10;;;;;;;16.95;45.21;101201.59;842451;23;1837;-78
2023/06/16 01:16:04;;;;;;;7.15;4.90;;;;;;;16.87;45.29;101176.91;839010;23;1342;-78
2023/06/16 01:16:28;;;;;;;6.88;4.93;;;;;;;16.92;45.36;101200.66;839571;23;1080;-77
2023/06/16 01:16:51;;;;;;;7.40;5.20;;;;;;;16.90;45.26;101200.66;840644;23;832;-77
2023/06/16 01:17:15;;;;;;;8.15;5.50;;;;;;;16.88;45.25;101205.03;839611;23;1001;-78
2023/06/16 01:17:46;;;;;;;8.30;5.40;;;;;;;16.86;45.46;101197.09;849337;23;893;-77
2023/06/16 01:18:09;;;;;;;8.32;5.38;;;;;;;16.77;45.64;101193.53;851659;23;1348;-78
2023/06/16 01:18:31;;;;;;;7.00;5.10;;;;;;;16.84;45.52;101203.25;847240;23;1125;-78
2023/06/16 01:18:54;;;;;;;7.20;5.32;;;;;;;16.79;45.63;101199.69;839563;23;1209;-78
2023/06/16 01:19:29;;;;;;;7.90;5.60;;;;;;;16.81;45.69;101204.09;840899;23;1029;-78
2023/06/16 01:20:20;;;;;;;7.60;5.30;;;;;;;16.80;45.71;101201.44;835944;23;1250;-78
2023/06/16 01:21:37;;;;;;;9.07;4.90;;;;;;;16.76;45.92;101204.91;836135;23;1338;-77
2023/06/16 01:22:12;;;;;;;7.03;5.20;;;;;;;16.74;46.09;101204.03;833127;23;1310;-78
2023/06/16 01:22:53;;;;;;;6.40;4.78;;;;;;;16.75;45.97;101211.06;821859;24;1059;-78
2023/06/16 01:23:42;;;;;;;7.90;5.13;;;;;;;16.67;46.08;101198.69;834701;23;1995;-77
2023/06/16 01:24:16;;;;;;;7.80;5.45;;;;;;;16.60;46.16;101191.63;835774;23;1277;-78
2023/06/16 01:24:42;;;;;;;8.18;5.43;;;;;;;16.60;46.15;101193.34;835676;23;1134;-78
2023/06/16 01:25:04;;;;;;;7.18;5.30;;;;;;;16.60;46.19;101196.88;837335;23;1040;-78
2023/06/16 01:25:30;;;;;;;8.00;5.43;;;;;;;16.61;46.19;101203.91;840915;23;1009;-77
2023/06/16 01:25:55;;;;;;;8.02;5.20;;;;;;;16.60;46.19;101198.63;841331;23;858;-78
2023/06/16 01:26:16;;;;;;;8.73;5.07;;;;;;;16.59;46.16;101197.72;839688;23;1201;-79
2023/06/16 01:26:44;;;;;;;8.55;5.10;;;;;;;16.63;46.30;101210.09;841364;23;1044;-78
2023/06/16 01:27:08;;;;;;;8.10;5.20;;;;;;;16.58;46.23;101201.25;836029;23;1126;-78
2023/06/16 01:27:32;;;;;;;9.10;5.60;;;;;;;16.57;46.27;101204.75;843212;23;1353;-78
2023/06/16 01:27:54;;;;;;;8.48;5.50;;;;;;;16.53;46.41;101197.69;845426;23;790;-78
2023/06/16 01:28:18;;;;;;;7.68;5.20;;;;;;;16.51;46.44;101195.03;838884;23;1193;-77
2023/06/16 01:28:41;;;;;;;6.90;4.80;;;;;;;16.51;46.48;101189.75;841235;23;1017;-77
2023/06/16 01:29:10;;;;;;;6.85;4.90;;;;;;;16.53;46.29;101193.28;843752;23;1958;-78
2023/06/16 01:29:36;;;;;;;8.50;5.38;;;;;;;16.53;46.39;101197.69;845064;23;1078;-78
2023/06/16 01:30:01;;;;;;;7.82;5.07;;;;;;;16.54;46.47;101204.72;836028;23;1226;-78
2023/06/16 01:30:24;;;;;;;7.18;5.10;;;;;;;16.54;46.36;101199.47;835140;23;1303;-78
2023/06/16 01:30:50;;;;;;;6.70;5.10;;;;;;;16.49;46.74;101206.41;835774;23;1195;-78
2023/06/16 01:31:15;;;;;;;6.90;4.90;;;;;;;16.50;46.67;101208.19;834316;23;1508;-78
2023/06/16 01:31:38;;;;;;;6.80;5.00;;;;;;;16.37;46.64;101184.38;835663;23;886;-78
2023/06/16 01:32:01;;;;;;;7.40;5.07;;;;;;;16.39;46.68;101189.63;837305;23;806;-78
2023/06/16 01:32:25;;;;;;;7.43;5.00;;;;;;;16.43;46.89;101202.84;837136;23;1069;-77
2023/06/16 01:32:51;;;;;;;8.13;4.90;;;;;;;16.42;46.77;101192.31;835862;23;830;-77
2023/06/16 01:33:13;;;;;;;8.52;5.00;;;;;;;16.39;47.00;101192.25;837065;23;1072;-77
2023/06/16 01:33:36;;;;;;;8.70;5.50;;;;;;;16.41;47.09;101196.69;837240;23;925;-78
2023/06/16 01:34:00;;;;;;;8.25;5.40;;;;;;;16.43;47.41;101202.84;841294;23;773;-78
2023/06/16 01:34:21;;;;;;;10.18;5.55;;;;;;;16.43;47.34;101201.97;841021;23;961;-77
2023/06/16 01:34:43;;;;;;;11.75;5.45;;;;;;;16.37;47.46;101189.63;841313;23;1021;-78
2023/06/16 01:35:06;;;;;;;10.68;5.60;;;;;;;16.43;47.55;101196.72;835993;23;1384;-77
2023/06/16 01:35:27;;;;;;;8.77;5.30;;;;;;;16.33;47.61;101179.91;844823;23;1044;-77
2023/06/16 01:35:50;;;;;;;8.30;5.30;;;;;;;16.43;47.75;101202.84;839780;23;1506;-78
2023/06/16 01:36:12;;;;;;;7.80;5.10;;;;;;;16.42;47.42;101198.44;847934;23;1253;-77
2023/06/16 01:36:36;;;;;;;8.07;4.97;;;;;;;16.35;47.53;101182.56;845317;23;879;-78
2023/06/16 01:36:58;;;;;;;7.55;4.90;;;;;;;16.40;47.50;101194.91;844863;23;850;-78
2023/06/16 01:37:21;;;;;;;7.43;5.13;;;;;;;16.40;47.61;101194.91;839661;23;1176;-77
2023/06/16 01:37:44;;;;;;;7.68;5.05;;;;;;;16.40;47.71;101194.91;841172;23;887;-78
2023/06/16 01:38:05;;;;;;;8.05;4.93;;;;;;;16.38;47.74;101188.75;841300;23;1038;-77
2023/06/16 01:38:27;;;;;;;10.23;5.20;;;;;;;16.40;47.72;101197.56;838548;23;1328;-77
2023/06/16 01:38:49;;;;;;;9.50;5.35;;;;;;;16.38;47.95;101190.50;839863;23;1525;-78
2023/06/16 01:39:12;;;;;;;9.48;5.50;;;;;;;16.37;47.74;101187.00;837130;23;1057;-77
2023/06/16 01:39:33;;;;;;;7.82;5.50;;;;;;;16.37;47.79;101184.38;841059;23;901;-78
2023/06/16 01:39:55;;;;;;;7.32;5.10;;;;;;;16.36;47.89;101187.88;841372;23;830;-78
2023/06/16 01:40:19;;;;;;;7.35;5.18;;;;;;;16.38;47.82;101193.13;841064;23;1108;-77
2023/06/16 01:40:41;;;;;;;9.00;5.03;;;;;;;16.36;47.85;101187.88;843179;23;1018;-78
2023/06/16 01:41:02;;;;;;;9.40;5.30;;;;;;;16.42;47.88;101206.34;840027;23;1338;-77
2023/06/16 01:41:26;;;;;;;8.18;5.15;;;;;;;16.41;47.84;101201.94;839605;23;1323;-77
2023/06/16 01:41:49;;;;;;;6.72;4.90;;;;;;;16.32;48.07;101188.69;841114;23;827;-77
2023/06/16 01:42:13;;;;;;;6.80;4.90;;;;;;;16.33;47.80;101190.44;843437;23;1115;-78
2023/06/16 01:42:35;;;;;;;7.45;5.28;;;;;;;16.36;47.86;101200.13;840986;23;1018;-78
2023/06/16 01:42:58;;;;;;;9.82;5.47;;;;;;;16.38;47.85;101203.66;837290;23;890;-77
2023/06/16 01:43:20;;;;;;;9.43;5.40;;;;;;;16.31;47.85;101189.56;835698;23;1103;-78
2023/06/16 01:43:42;;;;;;;11.35;5.80;;;;;;;16.29;47.99;101193.94;843725;23;1247;-77
2023/06/16 01:44:05;;;;;;;10.15;5.82;;;;;;;16.24;47.92;101185.97;851952;23;1358;-77
2023/06/16 01:44:27;;;;;;;9.02;5.70;;;;;;;16.31;47.76;101205.38;851814;23;1164;-76
2023/06/16 01:44:49;;;;;;;7.45;5.20;;;;;;;16.33;47.89;101215.94;852157;23;854;-77
2023/06/16 01:45:12;;;;;;;8.18;5.30;;;;;;;16.23;47.92;101202.59;841158;23;1116;-78
2023/06/16 01:45:34;;;;;;;7.90;5.25;;;;;;;16.25;47.95;101202.66;837193;23;1025;-77
2023/06/16 01:45:56;;;;;;;7.13;4.80;;;;;;;16.19;47.96;101187.63;837409;23;839;-78
2023/06/16 01:46:17;;;;;;;7.65;4.60;;;;;;;16.27;48.13;101204.44;837123;23;1076;-78
2023/06/16 01:46:40;;;;;;;7.60;4.45;;;;;;;16.21;48.20;101195.56;839336;23;947;-77
2023/06/16 01:47:01;;;;;;;7.30;4.63;;;;;;;16.23;48.16;101204.34;840661;23;949;-77
2023/06/16 01:47:22;;;;;;;6.20;4.80;;;;;;;16.23;47.78;101209.63;835726;23;1251;-77
2023/06/16 01:47:44;;;;;;;6.15;4.82;;;;;;;16.13;48.19;101195.47;841183;23;831;-78
2023/06/16 01:48:05;;;;;;;6.82;4.90;;;;;;;16.18;48.03;101201.69;838408;23;1398;-78
2023/06/16 01:48:26;;;;;;;7.10;4.90;;;;;;;16.18;48.18;101206.94;840799;23;1012;-77
2023/06/16 01:48:48;;;;;;;7.55;5.00;;;;;;;16.08;48.14;101190.16;835809;23;1898;-77
2023/06/16 01:49:09;;;;;;;6.90;4.90;;;;;;;16.08;48.25;101195.41;843695;23;1485;-77
2023/06/16 01:49:30;;;;;;;6.80;4.72;;;;;;;16.07;48.31;101192.75;838445;23;1489;-78
2023/06/16 01:49:51;;;;;;;6.40;4.50;;;;;;;16.07;48.29;101198.00;835913;23;1193;-77
2023/06/16 01:50:12;;;;;;;5.85;4.32;;;;;;;16.07;48.55;101198.91;840045;23;1103;-78
2023/06/16 01:50:34;;;;;;;6.43;4.38;;;;;;;16.07;48.47;101204.19;839771;23;1352;-78
2023/06/16 01:50:55;;;;;;;7.03;4.50;;;;;;;16.01;48.44;101188.31;843937;23;1550;-77
2023/06/16 01:51:16;;;;;;;7.10;4.90;;;;;;;15.98;48.56;101193.53;841032;23;1029;-77
2023/06/16 01:51:37;;;;;;;7.00;4.80;;;;;;;16.04;48.63;101201.50;843728;23;1038;-78
2023/06/16 01:51:58;;;;;;;6.72;4.95;;;;;;;15.98;48.50;101194.41;843910;23;1155;-78
2023/06/16 01:52:20;;;;;;;6.43;4.70;;;;;;;15.99;48.62;101205.84;845193;23;1120;-77